Time;durP1;ratioP1;P1;durP2;ratioP2;P2;SDS_P1;SDS_P2;PMS_P1;PMS_P2;Temp;Humidity;BMP_temperature;BMP_pressure;BME280_temperature;BME280_humidity;BME280_pressure;Samples;Min_cycle;Max_cycle;Signal;HPM_P1;HPM_P2
2023/08/26 00:02:14;;;;;;;24.60;5.37;;;28.20;56.70;;;;;;5090389;28;20216;-74
2023/08/26 00:04:41;;;;;;;32.93;6.50;;;28.10;56.70;;;;;;5089718;28;20285;-74
2023/08/26 00:07:08;;;;;;;39.70;7.17;;;28.20;56.70;;;;;;5083666;28;20294;-73
2023/08/26 00:09:36;;;;;;;30.83;6.17;;;28.10;56.70;;;;;;5083825;28;20199;-73
2023/08/26 00:12:04;;;;;;;32.30;6.20;;;28.10;56.60;;;;;;5090083;28;20253;-74
2023/08/26 00:14:31;;;;;;;36.00;6.60;;;28.10;56.60;;;;;;5089428;28;20201;-74
2023/08/26 00:16:58;;;;;;;40.40;7.03;;;28.10;56.60;;;;;;5087890;28;20682;-73
2023/08/26 00:19:25;;;;;;;31.20;6.10;;;28.10;56.60;;;;;;5089212;28;20217;-74
2023/08/26 00:21:52;;;;;;;32.30;6.33;;;28.10;56.60;;;;;;5089095;28;20298;-73
2023/08/26 00:24:20;;;;;;;26.80;5.63;;;28.10;56.60;;;;;;5082863;28;20295;-74
2023/08/26 00:26:48;;;;;;;35.80;6.37;;;28.10;56.60;;;;;;5089154;28;20217;-73
2023/08/26 00:29:15;;;;;;;32.80;6.00;;;28.00;56.50;;;;;;5088155;28;20201;-73
2023/08/26 00:31:42;;;;;;;33.83;6.27;;;28.00;56.50;;;;;;5088353;28;20230;-73
2023/08/26 00:34:09;;;;;;;36.03;6.57;;;28.00;56.50;;;;;;5085481;28;20207;-73
2023/08/26 00:36:36;;;;;;;31.53;6.57;;;28.00;56.50;;;;;;5089581;28;20203;-73
2023/08/26 00:39:03;;;;;;;34.33;6.37;;;28.00;57.20;;;;;;5087270;28;20233;-73
2023/08/26 00:41:30;;;;;;;35.33;6.63;;;28.00;56.50;;;;;;5087076;28;20195;-73
2023/08/26 00:43:58;;;;;;;29.83;6.03;;;28.00;56.50;;;;;;5087079;28;20278;-73
2023/08/26 00:46:25;;;;;;;36.57;6.50;;;28.00;56.50;;;;;;5089096;28;20187;-73
2023/08/26 00:48:52;;;;;;;67.97;9.23;;;28.00;56.50;;;;;;5086969;28;20270;-73
2023/08/26 00:51:20;;;;;;;45.43;7.40;;;28.00;56.50;;;;;;5085279;28;20309;-73
2023/08/26 00:53:47;;;;;;;47.17;7.57;;;28.00;56.50;;;;;;5087041;28;21066;-73
2023/08/26 00:56:15;;;;;;;30.23;5.87;;;27.90;56.40;;;;;;5088429;28;20310;-73
2023/08/26 00:58:42;;;;;;;33.70;6.07;;;27.90;56.40;;;;;;5088515;28;20201;-73
2023/08/26 01:01:11;;;;;;;53.80;8.37;;;27.90;56.40;;;;;;5087383;28;20735;-73
2023/08/26 01:03:39;;;;;;;34.60;6.33;;;27.90;56.40;;;;;;5086577;28;20206;-73
2023/08/26 01:06:06;;;;;;;26.47;5.83;;;27.90;56.40;;;;;;5088291;28;20210;-73
2023/08/26 01:08:34;;;;;;;41.50;6.97;;;27.90;56.40;;;;;;5087882;28;20302;-73
2023/08/26 01:11:08;;;;;;;30.73;6.00;;;27.90;56.40;;;;;;5084977;28;20313;-73
2023/08/26 01:13:44;;;;;;;33.07;6.17;;;27.90;56.40;;;;;;5087663;28;20212;-73
2023/08/26 01:16:14;;;;;;;29.27;5.83;;;27.90;56.40;;;;;;5088147;28;20240;-73
2023/08/26 01:18:43;;;;;;;34.77;6.17;;;27.80;56.30;;;;;;5088298;28;20195;-73
2023/08/26 01:21:13;;;;;;;50.87;7.87;;;27.90;56.40;;;;;;5087358;28;20290;-73
2023/08/26 01:23:43;;;;;;;29.00;6.17;;;27.90;56.40;;;;;;5086095;28;20205;-73
2023/08/26 01:26:10;;;;;;;35.73;6.60;;;27.90;56.40;;;;;;5086570;28;20698;-73
2023/08/26 01:28:38;;;;;;;29.43;6.50;;;27.90;56.40;;;;;;5088221;28;20303;-73
2023/08/26 01:31:09;;;;;;;31.57;6.07;;;27.80;56.40;;;;;;5088126;28;20294;-73
2023/08/26 01:33:41;;;;;;;30.53;6.23;;;27.80;56.40;;;;;;5087200;28;20282;-73
2023/08/26 01:36:14;;;;;;;46.90;7.50;;;27.80;56.30;;;;;;5088121;28;20193;-73
2023/08/26 01:38:43;;;;;;;30.47;5.77;;;27.80;56.40;;;;;;5088469;28;20684;-73
2023/08/26 01:41:12;;;;;;;31.03;6.13;;;27.80;56.40;;;;;;5087455;28;20306;-73
2023/08/26 01:43:39;;;;;;;34.83;6.53;;;27.80;56.40;;;;;;5087141;28;20290;-73
2023/08/26 01:46:07;;;;;;;59.30;8.57;;;27.80;56.40;;;;;;5085155;28;20195;-73
2023/08/26 01:48:34;;;;;;;34.13;6.30;;;27.80;57.00;;;;;;5086994;28;20277;-73
2023/08/26 01:51:00;;;;;;;34.60;6.23;;;27.80;56.40;;;;;;5078516;28;20211;-73
2023/08/26 01:53:27;;;;;;;33.00;6.07;;;27.70;56.30;;;;;;5068096;28;20298;-74
2023/08/26 01:55:56;;;;;;;38.83;6.80;;;27.70;56.30;;;;;;5083190;28;20199;-74
2023/08/26 01:58:23;;;;;;;34.67;6.07;;;27.70;56.30;;;;;;5086572;28;20565;-73
2023/08/26 02:00:50;;;;;;;31.70;5.90;;;27.70;56.30;;;;;;5085322;28;20208;-73
2023/08/26 02:03:17;;;;;;;31.17;5.90;;;27.70;56.30;;;;;;5067902;28;20213;-73
2023/08/26 02:05:43;;;;;;;41.87;6.97;;;27.70;56.30;;;;;;5083126;28;20297;-73
2023/08/26 02:08:10;;;;;;;27.33;5.77;;;27.70;56.30;;;;;;5087460;28;20198;-73
2023/08/26 02:10:37;;;;;;;56.43;8.57;;;27.70;56.30;;;;;;5085487;28;20302;-73
2023/08/26 02:13:06;;;;;;;30.43;5.73;;;27.70;56.30;;;;;;5085581;28;20233;-73
2023/08/26 02:15:34;;;;;;;35.90;6.17;;;27.70;56.30;;;;;;5087427;28;20203;-73
2023/08/26 02:18:01;;;;;;;34.10;6.13;;;27.70;56.30;;;;;;5087600;28;20195;-73
2023/08/26 02:20:28;;;;;;;43.13;7.37;;;27.70;56.30;;;;;;5067153;28;20219;-73
2023/08/26 02:22:55;;;;;;;24.83;5.70;;;27.70;56.30;;;;;;5072713;28;20306;-74
2023/08/26 02:25:22;;;;;;;29.33;5.93;;;27.70;56.30;;;;;;5073610;28;20211;-73
2023/08/26 02:27:49;;;;;;;57.20;8.53;;;27.70;56.30;;;;;;5073590;28;20281;-73
2023/08/26 02:30:17;;;;;;;40.23;7.10;;;27.60;56.20;;;;;;5087051;28;20195;-74
2023/08/26 02:32:44;;;;;;;38.03;7.00;;;27.60;56.20;;;;;;5085590;28;20231;-73
2023/08/26 02:35:11;;;;;;;31.33;6.30;;;27.60;56.20;;;;;;5084901;28;20229;-73
2023/08/26 02:37:38;;;;;;;56.00;8.37;;;27.60;56.20;;;;;;5084420;28;20206;-73
2023/08/26 02:40:06;;;;;;;46.20;7.43;;;27.60;56.20;;;;;;5084478;28;20338;-73
2023/08/26 02:42:34;;;;;;;37.47;7.10;;;27.60;56.20;;;;;;5089487;28;20293;-73
2023/08/26 02:45:01;;;;;;;40.47;6.97;;;27.60;56.20;;;;;;5088914;28;20285;-73
2023/08/26 02:47:29;;;;;;;31.63;6.30;;;27.60;56.20;;;;;;5089596;28;20664;-74
2023/08/26 02:49:56;;;;;;;60.20;8.77;;;27.60;56.20;;;;;;5086894;28;20202;-73
2023/08/26 02:52:23;;;;;;;33.50;6.20;;;27.60;56.20;;;;;;5091255;28;20315;-73
2023/08/26 02:54:50;;;;;;;32.63;6.23;;;27.50;56.10;;;;;;5084995;28;20206;-73
2023/08/26 02:57:17;;;;;;;34.53;6.43;;;27.50;56.20;;;;;;5087143;28;20924;-73
2023/08/26 02:59:45;;;;;;;50.77;7.67;;;27.50;56.20;;;;;;5087757;28;20654;-73
2023/08/26 03:02:12;;;;;;;35.97;6.53;;;27.50;56.10;;;;;;5087713;28;20380;-73
2023/08/26 03:04:44;;;;;;;32.43;6.27;;;27.50;56.10;;;;;;5082864;28;20290;-73
2023/08/26 03:07:11;;;;;;;30.83;6.07;;;27.50;56.10;;;;;;5085831;28;20285;-73
2023/08/26 03:09:38;;;;;;;31.17;5.77;;;27.50;56.10;;;;;;5090399;28;20217;-73
2023/08/26 03:12:05;;;;;;;38.73;6.87;;;27.50;56.20;;;;;;5086220;28;20643;-73
2023/08/26 03:14:32;;;;;;;31.37;5.93;;;27.50;56.10;;;;;;5086070;28;20278;-73
2023/08/26 03:16:59;;;;;;;75.53;9.73;;;27.50;56.10;;;;;;5080925;28;20290;-73
2023/08/26 03:19:26;;;;;;;40.10;6.90;;;27.50;56.20;;;;;;5089978;28;20324;-73
2023/08/26 03:21:55;;;;;;;57.00;8.20;;;27.50;56.20;;;;;;5088011;28;20198;-74
2023/08/26 03:24:22;;;;;;;45.30;7.23;;;27.50;56.20;;;;;;5088895;28;20202;-73
2023/08/26 03:26:49;;;;;;;35.23;6.47;;;27.50;56.10;;;;;;5088890;28;20217;-73
2023/08/26 03:29:16;;;;;;;36.97;6.70;;;27.40;56.20;;;;;;5089711;28;20309;-73
2023/08/26 03:31:44;;;;;;;33.33;6.40;;;27.40;56.10;;;;;;5078231;28;20227;-73
2023/08/26 03:34:11;;;;;;;31.67;6.33;;;27.40;56.10;;;;;;5076890;28;20301;-73
2023/08/26 03:36:38;;;;;;;32.53;6.17;;;27.40;56.10;;;;;;5083506;28;20208;-73
2023/08/26 03:39:06;;;;;;;35.57;6.40;;;27.40;56.20;;;;;;5084245;28;20227;-73
2023/08/26 03:41:33;;;;;;;37.17;6.40;;;27.40;56.10;;;;;;5086750;28;20302;-74
2023/08/26 03:44:00;;;;;;;33.90;6.07;;;27.40;56.10;;;;;;5084648;28;20199;-73
2023/08/26 03:46:27;;;;;;;30.20;6.47;;;27.40;56.10;;;;;;5089555;28;20207;-73
2023/08/26 03:48:54;;;;;;;30.27;5.87;;;27.40;56.10;;;;;;5086785;28;20412;-73
2023/08/26 03:51:21;;;;;;;22.40;5.23;;;27.40;56.10;;;;;;5083443;28;20198;-73
2023/08/26 03:53:48;;;;;;;28.97;5.50;;;27.40;56.10;;;;;;5088260;28;20203;-73
2023/08/26 03:56:17;;;;;;;28.40;6.10;;;27.40;56.10;;;;;;5088146;28;20209;-73
2023/08/26 03:58:44;;;;;;;34.03;6.37;;;27.40;56.10;;;;;;5090147;28;20199;-73
2023/08/26 04:01:11;;;;;;;31.30;6.00;;;27.40;56.10;;;;;;5089067;28;20244;-73
2023/08/26 04:03:37;;;;;;;54.83;8.67;;;27.40;56.10;;;;;;5089397;28;20281;-73
2023/08/26 04:06:05;;;;;;;43.03;7.07;;;27.40;56.10;;;;;;5089422;28;20440;-73
2023/08/26 04:08:34;;;;;;;43.50;7.10;;;27.30;56.00;;;;;;5074130;28;20314;-73
2023/08/26 04:11:02;;;;;;;29.07;5.87;;;27.40;56.10;;;;;;5090556;28;20203;-73
2023/08/26 04:13:31;;;;;;;36.00;6.43;;;27.30;56.00;;;;;;5089949;28;20237;-73
2023/08/26 04:15:58;;;;;;;32.60;6.53;;;27.30;56.10;;;;;;5089849;28;20286;-74
2023/08/26 04:18:25;;;;;;;48.03;7.40;;;27.30;56.00;;;;;;5088673;28;20698;-73
2023/08/26 04:20:53;;;;;;;31.03;6.13;;;27.30;56.00;;;;;;5089499;28;20203;-74
2023/08/26 04:23:20;;;;;;;37.63;6.67;;;27.30;56.10;;;;;;5087439;28;20191;-73
2023/08/26 04:25:47;;;;;;;29.37;5.93;;;27.30;56.00;;;;;;5089212;28;20269;-74
2023/08/26 04:28:14;;;;;;;32.43;6.27;;;27.30;56.60;;;;;;5090000;28;20303;-74
2023/08/26 04:30:42;;;;;;;37.60;6.93;;;27.30;56.00;;;;;;5088887;28;20206;-74
2023/08/26 04:33:09;;;;;;;38.23;6.67;;;27.30;56.00;;;;;;5088540;28;20223;-73
2023/08/26 04:35:37;;;;;;;57.00;8.53;;;27.30;56.00;;;;;;5087553;28;20206;-73
2023/08/26 04:38:04;;;;;;;33.03;6.37;;;27.30;56.10;;;;;;5086347;28;20357;-74
2023/08/26 04:40:31;;;;;;;46.90;7.80;;;27.30;56.00;;;;;;5082426;28;20215;-74
2023/08/26 04:42:58;;;;;;;53.13;7.97;;;27.30;56.00;;;;;;5087818;28;20301;-73
2023/08/26 04:45:26;;;;;;;26.03;5.63;;;27.20;56.00;;;;;;5078768;28;20658;-76
2023/08/26 04:47:54;;;;;;;37.80;6.82;;;27.30;56.00;;;;;;5083461;28;20447;-75
2023/08/26 04:50:21;;;;;;;34.33;6.30;;;27.20;56.30;;;;;;5071619;28;20208;-75
2023/08/26 04:52:48;;;;;;;28.77;5.63;;;27.10;56.30;;;;;;5086961;28;20215;-74
2023/08/26 04:55:15;;;;;;;33.20;6.47;;;27.20;56.20;;;;;;5081128;28;20210;-76
2023/08/26 04:57:42;;;;;;;28.57;6.07;;;27.20;56.10;;;;;;5078106;28;20199;-75
2023/08/26 05:00:11;;;;;;;31.77;6.43;;;27.20;56.10;;;;;;5081477;28;20203;-75
2023/08/26 05:02:38;;;;;;;36.40;6.83;;;27.20;56.10;;;;;;5085841;28;20206;-74
2023/08/26 05:05:07;;;;;;;33.00;6.20;;;27.30;56.10;;;;;;5084295;28;20195;-75
2023/08/26 05:07:34;;;;;;;33.40;6.23;;;27.30;56.10;;;;;;5085252;28;20206;-75
2023/08/26 05:10:03;;;;;;;39.43;6.97;;;27.30;56.10;;;;;;5086853;28;20199;-75
2023/08/26 05:12:30;;;;;;;64.77;9.03;;;27.30;56.70;;;;;;5083602;28;20223;-75
2023/08/26 05:14:57;;;;;;;32.50;6.43;;;27.30;56.10;;;;;;5081837;28;20213;-77
2023/08/26 05:17:24;;;;;;;33.07;6.70;;;27.30;56.20;;;;;;5081575;28;20281;-78
2023/08/26 05:19:51;;;;;;;37.17;6.50;;;27.30;56.10;;;;;;5087542;28;20203;-77
2023/08/26 05:22:21;;;;;;;35.47;6.60;;;27.30;56.20;;;;;;5087256;28;20235;-78
2023/08/26 05:24:47;;;;;;;25.87;5.83;;;27.30;56.10;;;;;;5088305;28;20203;-80
2023/08/26 05:27:15;;;;;;;33.53;6.20;;;27.30;56.10;;;;;;5087025;28;20663;-77
2023/08/26 05:29:42;;;;;;;38.37;8.67;;;27.30;56.10;;;;;;5084805;28;20199;-77
2023/08/26 05:32:09;;;;;;;56.10;10.43;;;27.30;56.10;;;;;;5079821;28;20700;-75
2023/08/26 05:34:36;;;;;;;65.60;12.57;;;27.30;56.20;;;;;;5080862;28;20206;-75
2023/08/26 05:37:03;;;;;;;68.23;11.23;;;27.30;56.20;;;;;;5086791;28;20209;-77
2023/08/26 05:39:31;;;;;;;59.47;9.60;;;27.30;56.10;;;;;;5080082;28;20218;-75
2023/08/26 05:41:58;;;;;;;73.93;10.93;;;27.30;55.80;;;;;;5083812;28;20215;-75
2023/08/26 05:44:25;;;;;;;35.83;7.13;;;27.30;55.80;;;;;;5087037;28;20282;-75
2023/08/26 05:46:52;;;;;;;30.80;6.63;;;27.30;55.90;;;;;;5086642;28;20198;-75
2023/08/26 05:49:19;;;;;;;34.83;6.77;;;27.30;55.90;;;;;;5086803;28;20199;-75
2023/08/26 05:51:45;;;;;;;29.00;6.80;;;27.30;55.90;;;;;;5088355;28;20195;-75
2023/08/26 05:54:12;;;;;;;29.47;6.23;;;27.30;55.90;;;;;;5083740;28;20227;-75
2023/08/26 05:56:41;;;;;;;25.97;6.40;;;27.30;55.90;;;;;;5068788;28;20235;-75
2023/08/26 05:59:08;;;;;;;32.67;6.50;;;27.30;55.90;;;;;;5071530;28;20203;-75
2023/08/26 06:01:35;;;;;;;28.97;6.07;;;27.20;55.80;;;;;;5088152;28;20237;-74
2023/08/26 06:04:02;;;;;;;27.60;6.00;;;27.20;55.80;;;;;;5088318;28;20203;-75
2023/08/26 06:06:29;;;;;;;62.33;9.10;;;27.20;55.80;;;;;;5085524;28;20278;-75
2023/08/26 06:08:56;;;;;;;33.20;6.17;;;27.20;56.40;;;;;;5085050;28;20206;-75
2023/08/26 06:11:24;;;;;;;34.57;6.73;;;27.20;55.80;;;;;;5087700;28;20667;-74
2023/08/26 06:13:52;;;;;;;28.33;6.40;;;27.20;55.80;;;;;;5088318;28;20281;-75
2023/08/26 06:16:20;;;;;;;33.30;6.53;;;27.20;55.80;;;;;;5088074;28;20213;-74
2023/08/26 06:18:47;;;;;;;26.90;6.47;;;27.20;55.90;;;;;;5088494;28;20298;-74
2023/08/26 06:21:14;;;;;;;24.40;5.63;;;27.20;55.90;;;;;;5088162;28;20560;-75
2023/08/26 06:23:41;;;;;;;29.23;6.13;;;27.30;56.00;;;;;;5088048;28;20209;-75
2023/08/26 06:26:08;;;;;;;41.40;6.97;;;27.20;55.90;;;;;;5086580;28;20218;-75
2023/08/26 06:28:37;;;;;;;28.27;5.83;;;27.20;55.90;;;;;;5088184;28;20207;-75
2023/08/26 06:31:05;;;;;;;29.37;6.23;;;27.20;55.90;;;;;;5086997;28;20659;-75
2023/08/26 06:33:32;;;;;;;25.67;5.80;;;27.20;55.90;;;;;;5087859;28;20233;-75
2023/08/26 06:35:59;;;;;;;24.87;5.80;;;27.20;55.90;;;;;;5085797;28;20281;-74
2023/08/26 06:38:26;;;;;;;21.33;5.20;;;27.20;55.90;;;;;;5087163;28;20258;-75
2023/08/26 06:40:56;;;;;;;29.77;6.33;;;27.20;55.90;;;;;;5087132;28;20203;-75
2023/08/26 06:43:23;;;;;;;27.00;5.97;;;27.20;55.90;;;;;;5087574;28;20203;-75
2023/08/26 06:45:50;;;;;;;24.33;5.80;;;27.10;55.90;;;;;;5087704;28;20281;-75
2023/08/26 06:48:18;;;;;;;27.03;5.73;;;27.10;55.90;;;;;;5087359;28;20289;-75
2023/08/26 06:50:48;;;;;;;18.57;5.13;;;27.10;55.80;;;;;;5087010;28;20670;-75
2023/08/26 06:53:20;;;;;;;30.23;6.20;;;27.10;55.90;;;;;;5085942;28;20637;-75
2023/08/26 06:55:49;;;;;;;29.27;5.83;;;27.10;55.90;;;;;;5086290;28;20202;-75
2023/08/26 06:58:16;;;;;;;24.47;5.87;;;27.20;55.90;;;;;;5086945;28;20710;-75
2023/08/26 07:00:43;;;;;;;37.00;6.93;;;27.20;55.90;;;;;;5084988;28;20206;-74
2023/08/26 07:03:10;;;;;;;25.87;5.67;;;27.10;55.90;;;;;;5087293;28;20229;-74
2023/08/26 07:05:39;;;;;;;29.00;5.93;;;27.20;55.90;;;;;;5086662;28;20710;-75
2023/08/26 07:08:06;;;;;;;25.97;5.63;;;27.10;55.90;;;;;;5087778;28;20289;-75
2023/08/26 07:10:33;;;;;;;29.93;6.07;;;27.10;55.90;;;;;;5085189;28;20205;-76
2023/08/26 07:13:00;;;;;;;27.13;5.47;;;27.10;55.90;;;;;;5088127;28;20778;-76
2023/08/26 07:15:27;;;;;;;26.70;6.13;;;27.10;55.90;;;;;;5086015;28;20199;-75
2023/08/26 07:17:54;;;;;;;26.77;5.77;;;27.10;55.90;;;;;;5086738;28;20311;-75
2023/08/26 07:20:22;;;;;;;25.30;5.57;;;27.10;55.90;;;;;;5086585;28;20293;-74
2023/08/26 07:22:50;;;;;;;24.80;5.57;;;27.10;55.90;;;;;;5086562;28;20297;-75
2023/08/26 07:25:18;;;;;;;20.27;5.10;;;27.10;55.90;;;;;;5084450;28;20207;-75
2023/08/26 07:27:45;;;;;;;50.60;7.97;;;27.20;55.90;;;;;;5087142;28;20214;-76
2023/08/26 07:30:13;;;;;;;27.67;5.77;;;27.20;55.90;;;;;;5090511;28;20285;-75
2023/08/26 07:32:40;;;;;;;22.37;5.23;;;27.20;56.00;;;;;;5091261;28;20210;-75
2023/08/26 07:35:09;;;;;;;39.07;6.60;;;27.20;56.00;;;;;;5089131;28;20207;-74
2023/08/26 07:37:36;;;;;;;30.27;6.10;;;27.20;56.00;;;;;;5090474;28;20315;-74
2023/08/26 07:40:06;;;;;;;29.93;6.33;;;27.20;56.00;;;;;;5088423;28;20215;-74
2023/08/26 07:42:35;;;;;;;51.37;8.17;;;27.20;56.00;;;;;;5088708;28;20290;-75
2023/08/26 07:45:02;;;;;;;22.20;5.37;;;27.20;56.00;;;;;;5089874;28;20203;-75
2023/08/26 07:47:29;;;;;;;30.93;6.30;;;27.20;56.00;;;;;;5091041;28;20202;-75
2023/08/26 07:49:56;;;;;;;25.60;5.57;;;27.20;56.00;;;;;;5089059;28;20290;-75
2023/08/26 07:52:23;;;;;;;42.73;6.87;;;27.20;56.00;;;;;;5090599;28;20207;-75
2023/08/26 07:54:51;;;;;;;41.23;7.10;;;27.30;56.00;;;;;;5081520;28;20307;-75
2023/08/26 07:57:19;;;;;;;19.23;4.90;;;27.30;56.10;;;;;;5088392;28;20238;-75
2023/08/26 07:59:46;;;;;;;34.37;6.53;;;27.30;56.00;;;;;;5089897;28;20206;-75
2023/08/26 08:02:13;;;;;;;24.40;5.33;;;27.30;56.00;;;;;;5090855;28;20234;-76
2023/08/26 08:04:40;;;;;;;30.90;6.17;;;27.30;56.00;;;;;;5090188;28;20199;-75
2023/08/26 08:07:07;;;;;;;28.40;5.53;;;27.30;56.00;;;;;;5090264;28;20315;-76
2023/08/26 08:09:34;;;;;;;33.37;6.33;;;27.30;56.00;;;;;;5090654;28;20197;-76
2023/08/26 08:12:01;;;;;;;27.50;5.57;;;27.30;56.00;;;;;;5090453;28;20294;-76
2023/08/26 08:14:29;;;;;;;19.53;5.17;;;27.40;56.00;;;;;;5090246;28;20237;-76
2023/08/26 08:16:56;;;;;;;25.20;5.40;;;27.40;56.00;;;;;;5090269;28;20206;-75
2023/08/26 08:19:25;;;;;;;24.33;5.30;;;27.40;56.00;;;;;;5090541;28;20210;-75
2023/08/26 08:21:52;;;;;;;22.80;5.53;;;27.40;56.00;;;;;;5089977;28;20296;-75
2023/08/26 08:24:19;;;;;;;28.03;5.43;;;27.40;56.00;;;;;;5090135;28;20285;-75
2023/08/26 08:26:46;;;;;;;23.23;5.67;;;27.40;56.00;;;;;;5090152;28;20298;-75
2023/08/26 08:29:13;;;;;;;24.80;5.20;;;27.50;56.00;;;;;;5090227;28;20619;-75
2023/08/26 08:31:41;;;;;;;37.17;6.60;;;27.40;56.00;;;;;;5090174;28;20286;-74
2023/08/26 08:34:08;;;;;;;24.27;5.23;;;27.50;56.00;;;;;;5089824;28;20260;-75
2023/08/26 08:36:35;;;;;;;25.43;5.60;;;27.50;56.00;;;;;;5088621;28;20225;-74
2023/08/26 08:39:03;;;;;;;26.57;5.67;;;27.50;56.00;;;;;;5088633;28;20257;-74
2023/08/26 08:41:33;;;;;;;23.13;5.37;;;27.50;56.00;;;;;;5087781;28;20199;-74
2023/08/26 08:44:04;;;;;;;36.77;6.43;;;27.60;56.00;;;;;;5086548;28;20742;-75
2023/08/26 08:46:31;;;;;;;37.67;6.47;;;27.60;56.00;;;;;;5088474;28;20666;-75
2023/08/26 08:48:59;;;;;;;34.80;6.27;;;27.60;55.90;;;;;;5084551;28;20204;-74
2023/08/26 08:51:28;;;;;;;19.40;5.10;;;27.60;55.90;;;;;;5086687;28;20286;-75
2023/08/26 08:53:56;;;;;;;27.47;6.07;;;27.70;56.00;;;;;;5087482;28;20880;-75
2023/08/26 08:56:24;;;;;;;33.23;6.13;;;27.70;56.00;;;;;;5088099;28;20567;-74
2023/08/26 08:58:53;;;;;;;27.83;5.83;;;27.70;56.00;;;;;;5089511;28;20647;-75
2023/08/26 09:01:24;;;;;;;27.93;5.57;;;27.80;56.00;;;;;;5087789;28;20253;-74
2023/08/26 09:03:51;;;;;;;42.03;7.10;;;27.80;56.60;;;;;;5086446;28;20218;-74
2023/08/26 09:06:20;;;;;;;32.73;6.23;;;27.80;56.60;;;;;;5086053;28;20207;-75
2023/08/26 09:08:48;;;;;;;29.80;5.77;;;27.80;56.00;;;;;;5088229;28;20674;-75
2023/08/26 09:11:15;;;;;;;25.73;5.37;;;27.80;56.00;;;;;;5088665;28;20206;-74
2023/08/26 09:13:43;;;;;;;25.43;5.77;;;27.90;56.00;;;;;;5088471;28;20241;-74
2023/08/26 09:16:10;;;;;;;31.03;6.33;;;27.90;56.00;;;;;;5085868;28;20646;-74
2023/08/26 09:18:40;;;;;;;36.10;6.27;;;27.90;56.00;;;;;;5089018;28;20199;-74
2023/08/26 09:21:13;;;;;;;27.70;5.73;;;27.90;55.90;;;;;;5088466;28;20213;-74
2023/08/26 09:23:45;;;;;;;30.80;6.63;;;27.90;56.00;;;;;;5087298;28;20215;-74
2023/08/26 09:26:12;;;;;;;39.53;6.60;;;28.00;56.00;;;;;;5087080;28;20213;-74
2023/08/26 09:28:46;;;;;;;34.53;6.33;;;28.00;56.00;;;;;;5088370;28;20293;-74
2023/08/26 09:31:14;;;;;;;26.00;5.50;;;28.00;56.00;;;;;;5088614;28;20396;-74
2023/08/26 09:33:41;;;;;;;36.70;6.47;;;28.10;56.00;;;;;;5088533;28;20550;-74
2023/08/26 09:36:08;;;;;;;39.07;7.40;;;28.10;56.00;;;;;;5086353;28;20221;-74
2023/08/26 09:38:44;;;;;;;32.10;5.97;;;28.20;56.00;;;;;;5088647;28;20317;-74
2023/08/26 09:41:12;;;;;;;34.87;6.53;;;28.20;55.90;;;;;;5086185;28;20302;-74
2023/08/26 09:43:42;;;;;;;33.57;6.43;;;28.30;55.90;;;;;;5087639;28;20670;-75
2023/08/26 09:46:09;;;;;;;32.73;6.33;;;28.30;55.90;;;;;;5084670;28;20191;-74
2023/08/26 09:48:36;;;;;;;41.07;6.57;;;28.30;55.80;;;;;;5086730;28;20201;-75
2023/08/26 09:51:08;;;;;;;38.47;6.60;;;28.30;55.70;;;;;;5087916;28;20241;-74
2023/08/26 09:53:35;;;;;;;30.93;6.10;;;28.40;55.80;;;;;;5081666;28;20295;-74
2023/08/26 09:56:03;;;;;;;21.03;5.23;;;28.40;55.80;;;;;;5068522;28;20282;-74
2023/08/26 09:58:31;;;;;;;22.83;5.50;;;28.40;55.70;;;;;;5082903;28;20234;-74
2023/08/26 10:00:58;;;;;;;25.97;5.57;;;28.40;55.70;;;;;;5087142;28;20191;-75
2023/08/26 10:03:26;;;;;;;38.53;6.70;;;28.50;55.70;;;;;;5088064;28;20719;-74
2023/08/26 10:05:57;;;;;;;27.30;5.53;;;28.50;55.60;;;;;;5080752;28;20187;-74
2023/08/26 10:08:30;;;;;;;26.90;5.77;;;28.50;55.50;;;;;;5067859;28;20633;-74
2023/08/26 10:10:59;;;;;;;33.47;6.03;;;28.60;55.50;;;;;;5068298;28;20570;-74
2023/08/26 10:13:28;;;;;;;25.10;5.50;;;28.60;56.10;;;;;;5067703;28;20195;-74
2023/08/26 10:16:01;;;;;;;28.97;5.83;;;28.60;55.50;;;;;;5086674;28;20887;-74
2023/08/26 10:18:40;;;;;;;31.20;6.10;;;28.70;56.10;;;;;;5088327;28;20302;-75
2023/08/26 10:21:08;;;;;;;30.50;6.50;;;28.70;55.30;;;;;;5087919;28;20609;-75
2023/08/26 10:23:35;;;;;;;57.80;8.90;;;28.70;55.30;;;;;;5086456;28;20286;-75
2023/08/26 10:26:03;;;;;;;25.90;5.63;;;28.70;55.30;;;;;;5082322;28;20294;-72
2023/08/26 10:28:33;;;;;;;23.10;5.33;;;28.80;55.20;;;;;;5086581;28;20289;-72
2023/08/26 10:31:01;;;;;;;31.73;6.17;;;28.80;54.90;;;;;;5087221;28;20213;-74
2023/08/26 10:33:28;;;;;;;23.40;5.30;;;28.80;55.50;;;;;;5087005;28;20318;-74
2023/08/26 10:35:59;;;;;;;27.07;5.53;;;28.90;55.10;;;;;;5080454;28;20281;-75
2023/08/26 10:38:27;;;;;;;27.93;5.70;;;28.90;55.00;;;;;;5083604;28;20321;-74
2023/08/26 10:41:10;;;;;;;49.43;7.90;;;29.00;55.20;;;;;;5084042;28;20214;-75
2023/08/26 10:43:37;;;;;;;27.37;6.03;;;29.10;55.30;;;;;;5066669;28;20199;-74
2023/08/26 10:46:05;;;;;;;27.90;6.37;;;29.20;55.40;;;;;;5077568;28;20214;-75
2023/08/26 10:48:55;;;;;;;42.33;7.03;;;29.30;55.60;;;;;;5084426;28;20639;-74
2023/08/26 10:51:22;;;;;;;27.47;5.43;;;29.50;55.80;;;;;;5087175;28;20209;-75
2023/08/26 10:53:49;;;;;;;26.57;5.57;;;29.60;55.70;;;;;;5087847;28;20966;-75
2023/08/26 10:56:18;;;;;;;23.57;5.53;;;29.80;55.50;;;;;;5086818;28;20199;-75
2023/08/26 10:58:46;;;;;;;30.00;5.97;;;29.90;55.30;;;;;;5086648;28;20244;-75
2023/08/26 11:01:15;;;;;;;26.30;5.73;;;30.00;55.10;;;;;;5086668;28;20234;-75
2023/08/26 11:03:44;;;;;;;28.93;5.57;;;30.10;54.90;;;;;;5089413;28;20203;-74
2023/08/26 11:06:13;;;;;;;19.93;4.73;;;30.20;54.70;;;;;;5092067;28;20693;-74
2023/08/26 11:08:40;;;;;;;32.73;6.47;;;30.20;54.70;;;;;;5086947;28;20207;-75
2023/08/26 11:11:11;;;;;;;24.00;5.37;;;30.30;54.80;;;;;;5091316;28;20238;-75
2023/08/26 11:13:41;;;;;;;29.73;5.97;;;30.30;54.70;;;;;;5087585;28;20199;-75
2023/08/26 11:16:08;;;;;;;23.63;5.23;;;30.30;54.70;;;;;;5089304;28;20668;-75
2023/08/26 11:18:37;;;;;;;27.23;5.70;;;30.30;54.60;;;;;;5088863;28;20229;-75
2023/08/26 11:21:05;;;;;;;27.13;5.50;;;30.40;54.40;;;;;;5089126;28;20278;-74
2023/08/26 11:23:33;;;;;;;20.43;4.77;;;30.50;54.20;;;;;;5091755;28;20205;-75
2023/08/26 11:26:00;;;;;;;25.50;5.63;;;30.50;54.10;;;;;;5090683;28;20221;-75
2023/08/26 11:28:28;;;;;;;25.25;5.30;;;30.50;54.10;;;;;;5088283;28;20805;-75
2023/08/26 11:30:55;;;;;;;25.33;5.30;;;30.50;54.00;;;;;;5087384;28;20202;-75
2023/08/26 11:33:22;;;;;;;28.03;5.63;;;30.60;54.00;;;;;;5084685;28;20309;-74
2023/08/26 11:35:51;;;;;;;48.90;7.57;;;30.60;54.00;;;;;;5087675;28;20234;-75
2023/08/26 11:38:18;;;;;;;27.80;5.80;;;30.70;54.00;;;;;;5089286;28;20244;-75
2023/08/26 11:40:46;;;;;;;23.77;5.07;;;30.70;54.20;;;;;;5090039;28;20235;-75
2023/08/26 11:43:14;;;;;;;20.58;5.25;;;30.70;54.20;;;;;;5090836;28;20524;-75
2023/08/26 11:45:45;;;;;;;22.53;5.47;;;30.80;54.30;;;;;;5089973;28;20291;-75
2023/08/26 11:48:13;;;;;;;27.17;5.80;;;30.90;54.40;;;;;;5089313;28;20210;-75
2023/08/26 11:50:42;;;;;;;27.03;5.37;;;30.90;54.00;;;;;;5090094;28;20601;-75
2023/08/26 11:53:10;;;;;;;29.27;5.82;;;31.10;54.00;;;;;;5079649;28;20626;-74
2023/08/26 11:55:37;;;;;;;25.52;5.60;;;31.20;53.90;;;;;;5089185;28;20233;-75
2023/08/26 11:58:05;;;;;;;24.38;5.28;;;31.20;53.90;;;;;;5091355;28;20207;-75
2023/08/26 12:00:33;;;;;;;20.23;5.13;;;31.30;53.70;;;;;;5090701;28;20241;-75
2023/08/26 12:03:03;;;;;;;23.52;5.60;;;31.40;53.80;;;;;;5090908;28;20272;-75
2023/08/26 12:05:42;;;;;;;15.93;4.68;;;31.50;53.70;;;;;;5090704;28;20631;-75
2023/08/26 12:08:15;;;;;;;24.95;5.95;;;31.60;53.50;;;;;;5090795;28;20219;-75
2023/08/26 12:10:42;;;;;;;23.38;5.63;;;31.70;53.30;;;;;;5090507;28;20207;-75
2023/08/26 12:13:09;;;;;;;20.85;5.47;;;31.80;53.50;;;;;;5090686;28;20293;-75
2023/08/26 12:15:39;;;;;;;26.00;6.47;;;31.90;53.50;;;;;;5089653;28;20258;-74
2023/08/26 12:18:08;;;;;;;26.17;5.82;;;32.00;53.30;;;;;;5090656;28;20231;-75
2023/08/26 12:20:36;;;;;;;19.00;5.00;;;32.10;53.20;;;;;;5090584;28;20560;-75
2023/08/26 12:23:06;;;;;;;16.73;5.05;;;32.20;52.90;;;;;;5088736;28;20202;-75
2023/08/26 12:25:36;;;;;;;26.23;5.70;;;32.20;52.60;;;;;;5089234;28;20749;-75
2023/08/26 12:28:10;;;;;;;38.65;7.05;;;32.30;52.30;;;;;;5089106;28;20211;-75
2023/08/26 12:30:37;;;;;;;26.42;5.75;;;32.40;52.20;;;;;;5089694;28;20191;-75
2023/08/26 12:33:05;;;;;;;24.83;5.75;;;32.40;52.30;;;;;;5089357;28;20198;-75
2023/08/26 12:35:33;;;;;;;20.83;5.15;;;32.40;52.10;;;;;;5088116;28;20230;-74
2023/08/26 12:38:02;;;;;;;27.15;5.88;;;32.50;51.90;;;;;;5088098;28;20302;-75
2023/08/26 12:40:30;;;;;;;23.77;5.40;;;32.50;51.80;;;;;;5088550;28;20686;-75